Time;durP1;ratioP1;P1;durP2;ratioP2;P2;SDS_P1;SDS_P2;PMS_P1;PMS_P2;Temp;Humidity;BMP_temperature;BMP_pressure;BME280_temperature;BME280_humidity;BME280_pressure;Samples;Min_cycle;Max_cycle;Signal;HPM_P1;HPM_P2
2022/07/03 00:00:15;;;;;;;8.80;4.20;;;;;;;;;;5024996;28;20447;-79
2022/07/03 00:02:40;;;;;;;5.25;3.65;;;;;;;;;;5018717;28;20029;-78
2022/07/03 00:05:06;;;;;;;5.15;3.47;;;;;;;;;;5003825;28;20034;-77
2022/07/03 00:07:31;;;;;;;4.28;3.45;;;;;;;;;;5024197;28;20047;-81
2022/07/03 00:09:56;;;;;;;6.70;3.92;;;;;;;;;;5022179;28;20827;-78
2022/07/03 00:12:22;;;;;;;6.32;3.50;;;;;;;;;;5020357;28;20093;-78
2022/07/03 00:14:48;;;;;;;4.65;3.80;;;;;;;;;;5005529;28;20028;-78
2022/07/03 00:17:14;;;;;;;4.70;3.75;;;;;;;;;;5006040;28;20021;-78
2022/07/03 00:19:42;;;;;;;5.22;3.45;;;;;;;;;;5002972;28;20111;-82
2022/07/03 00:22:12;;;;;;;6.07;4.00;;;;;;;;;;5023152;28;20118;-81
2022/07/03 00:24:43;;;;;;;4.07;3.33;;;;;;;;;;5002560;28;20511;-78
2022/07/03 00:27:12;;;;;;;4.38;3.80;;;;;;;;;;5007638;28;20021;-83
2022/07/03 00:29:42;;;;;;;4.47;3.90;;;;;;;;;;5022380;28;20503;-84
2022/07/03 00:32:18;;;;;;;7.10;4.18;;;;;;;;;;5005345;28;20116;-79
2022/07/03 00:34:51;;;;;;;5.15;3.95;;;;;;;;;;5024401;28;20026;-84
2022/07/03 00:37:16;;;;;;;5.00;4.28;;;;;;;;;;5005555;28;20026;-79
2022/07/03 00:39:42;;;;;;;6.60;4.55;;;;;;;;;;5022287;28;20033;-79
2022/07/03 00:42:11;;;;;;;5.72;4.35;;;;;;;;;;5023094;28;20025;-82
2022/07/03 00:44:48;;;;;;;6.88;3.85;;;;;;;;;;5024779;28;20481;-79
2022/07/03 00:47:14;;;;;;;6.82;4.45;;;;;;;;;;5026996;28;20048;-84
2022/07/03 00:49:40;;;;;;;5.90;3.67;;;;;;;;;;5027857;28;20022;-84
2022/07/03 00:52:08;;;;;;;4.88;3.95;;;;;;;;;;5023243;28;20036;-84
2022/07/03 00:54:34;;;;;;;4.38;3.70;;;;;;;;;;5022995;28;20483;-83
2022/07/03 00:57:00;;;;;;;5.78;3.53;;;;;;;;;;5022171;28;20021;-83
2022/07/03 00:59:25;;;;;;;5.28;4.00;;;;;;;;;;5024436;28;20087;-83
2022/07/03 01:01:56;;;;;;;7.28;4.25;;;;;;;;;;5004900;28;20045;-79
2022/07/03 01:04:45;;;;;;;4.95;3.75;;;;;;;;;;5003422;28;20554;-83
2022/07/03 01:07:20;;;;;;;4.80;4.10;;;;;;;;;;5008296;28;20528;-83
2022/07/03 01:10:01;;;;;;;5.07;4.50;;;;;;;;;;5023761;28;20030;-79
2022/07/03 01:12:32;;;;;;;5.32;4.75;;;;;;;;;;5023849;28;20033;-84
2022/07/03 01:14:58;;;;;;;7.15;4.97;;;;;;;;;;5023071;28;20022;-84
2022/07/03 01:17:30;;;;;;;5.87;3.53;;;;;;;;;;5024418;28;20076;-79
2022/07/03 01:20:01;;;;;;;5.10;3.97;;;;;;;;;;5024266;28;20603;-82
2022/07/03 01:22:29;;;;;;;6.55;4.20;;;;;;;;;;5023765;28;20053;-84
2022/07/03 01:25:00;;;;;;;5.35;4.07;;;;;;;;;;5021920;28;20080;-80
2022/07/03 01:27:28;;;;;;;5.75;4.40;;;;;;;;;;5021861;28;20064;-79
2022/07/03 01:29:53;;;;;;;8.00;5.03;;;;;;;;;;5019364;28;20044;-82
2022/07/03 01:32:24;;;;;;;9.17;5.60;;;;;;;;;;5001605;28;20021;-80
2022/07/03 01:34:53;;;;;;;8.68;5.85;;;;;;;;;;5006803;28;20286;-83
2022/07/03 01:37:19;;;;;;;8.40;5.05;;;;;;;;;;5024034;28;20769;-80
2022/07/03 01:39:46;;;;;;;6.78;4.90;;;;;;;;;;5020688;28;20029;-84
2022/07/03 01:42:13;;;;;;;9.32;5.50;;;;;;;;;;5021769;28;20024;-83
2022/07/03 01:44:39;;;;;;;7.88;5.22;;;;;;;;;;5024719;28;20045;-79
2022/07/03 01:47:05;;;;;;;9.18;5.90;;;;;;;;;;4999521;28;20218;-84
2022/07/03 01:49:31;;;;;;;8.85;5.03;;;;;;;;;;5020678;28;20116;-79
2022/07/03 01:51:58;;;;;;;8.68;5.68;;;;;;;;;;5023322;28;20097;-79
2022/07/03 01:54:24;;;;;;;8.93;5.57;;;;;;;;;;5005867;28;20033;-83
2022/07/03 01:56:54;;;;;;;6.25;5.28;;;;;;;;;;5005642;28;20528;-84
2022/07/03 01:59:19;;;;;;;7.22;5.28;;;;;;;;;;5004903;28;20018;-84
2022/07/03 02:01:50;;;;;;;5.60;4.85;;;;;;;;;;5002949;28;20056;-79
2022/07/03 02:04:22;;;;;;;7.32;4.85;;;;;;;;;;5006978;28;20033;-79
2022/07/03 02:06:50;;;;;;;8.68;4.47;;;;;;;;;;5023172;28;20017;-83
2022/07/03 02:09:17;;;;;;;5.57;4.90;;;;;;;;;;5006267;28;20726;-79
2022/07/03 02:11:43;;;;;;;5.93;4.82;;;;;;;;;;5005211;28;20134;-82
2022/07/03 02:14:27;;;;;;;7.70;4.60;;;;;;;;;;5004414;28;20520;-84
2022/07/03 02:17:11;;;;;;;8.02;4.72;;;;;;;;;;5019008;28;20034;-78
2022/07/03 02:19:39;;;;;;;4.70;4.20;;;;;;;;;;5020799;28;20588;-80
2022/07/03 02:22:08;;;;;;;9.77;5.05;;;;;;;;;;5004066;28;20037;-80
2022/07/03 02:24:44;;;;;;;5.13;4.47;;;;;;;;;;5006857;28;20025;-80
2022/07/03 02:27:17;;;;;;;5.88;4.47;;;;;;;;;;5020668;28;20076;-84
2022/07/03 02:29:42;;;;;;;;;;;;;;;;;;5020183;28;20382;-78
2022/07/03 02:32:11;;;;;;;6.18;4.80;;;;;;;;;;5021373;28;20396;-80
2022/07/03 02:34:44;;;;;;;7.35;4.75;;;;;;;;;;5005950;28;20090;-79
2022/07/03 02:37:11;;;;;;;7.65;4.75;;;;;;;;;;5021333;28;20390;-80
2022/07/03 02:39:50;;;;;;;8.68;4.43;;;;;;;;;;5023089;28;20026;-84
2022/07/03 02:42:22;;;;;;;7.47;4.53;;;;;;;;;;5001452;28;20029;-78
2022/07/03 02:44:51;;;;;;;5.90;4.85;;;;;;;;;;5002434;28;20148;-85
2022/07/03 02:47:16;;;;;;;5.20;4.43;;;;;;;;;;5009509;28;20025;-83
2022/07/03 02:49:48;;;;;;;8.27;4.57;;;;;;;;;;5021883;28;20396;-80
2022/07/03 02:52:16;;;;;;;5.25;4.35;;;;;;;;;;5020039;28;20023;-82
2022/07/03 02:54:44;;;;;;;5.72;5.10;;;;;;;;;;5001616;28;20026;-78
2022/07/03 02:57:09;;;;;;;5.00;4.50;;;;;;;;;;5001483;28;20096;-82
2022/07/03 02:59:35;;;;;;;6.63;4.63;;;;;;;;;;5001422;28;20717;-83
2022/07/03 03:02:18;;;;;;;7.40;4.53;;;;;;;;;;5021033;28;20042;-79
2022/07/03 03:04:48;;;;;;;5.70;5.10;;;;;;;;;;5004783;28;20344;-82
2022/07/03 03:07:14;;;;;;;6.40;4.50;;;;;;;;;;5019521;28;20555;-78
2022/07/03 03:09:41;;;;;;;8.88;5.10;;;;;;;;;;5005886;28;20033;-78
2022/07/03 03:12:08;;;;;;;7.95;4.22;;;;;;;;;;5021250;28;20112;-81
2022/07/03 03:14:40;;;;;;;5.57;5.07;;;;;;;;;;5022879;28;20505;-83
2022/07/03 03:17:05;;;;;;;;;;;;;;;;;;5025219;28;20037;-77
2022/07/03 03:19:34;;;;;;;6.80;4.90;;;;;;;;;;5025484;28;19924;-82
2022/07/03 03:22:18;;;;;;;5.63;4.80;;;;;;;;;;5007076;28;20033;-80
2022/07/03 03:24:46;;;;;;;6.85;5.25;;;;;;;;;;5026182;28;20617;-82
2022/07/03 03:27:15;;;;;;;6.20;5.25;;;;;;;;;;5025476;28;20465;-83
2022/07/03 03:29:41;;;;;;;6.85;5.20;;;;;;;;;;5006452;28;20101;-83
2022/07/03 03:32:06;;;;;;;7.13;6.30;;;;;;;;;;5012108;28;20120;-78
2022/07/03 03:34:32;;;;;;;8.75;7.15;;;;;;;;;;5026561;28;20070;-78
2022/07/03 03:36:57;;;;;;;9.93;7.50;;;;;;;;;;5009570;28;20034;-79
2022/07/03 03:39:24;;;;;;;9.48;7.43;;;;;;;;;;5026153;28;20421;-80
2022/07/03 03:41:49;;;;;;;10.63;8.02;;;;;;;;;;5021026;28;20041;-83
2022/07/03 03:44:17;;;;;;;15.85;10.23;;;;;;;;;;5022274;28;20060;-78
2022/07/03 03:46:42;;;;;;;14.38;8.60;;;;;;;;;;5027753;28;20025;-79
2022/07/03 03:49:07;;;;;;;13.90;9.88;;;;;;;;;;5029633;28;20028;-79
2022/07/03 03:51:33;;;;;;;16.75;10.70;;;;;;;;;;5026474;28;20536;-79
2022/07/03 03:53:58;;;;;;;14.63;9.57;;;;;;;;;;5005463;28;20326;-83
2022/07/03 03:56:23;;;;;;;13.30;10.57;;;;;;;;;;5007326;28;20064;-82
2022/07/03 03:58:49;;;;;;;18.35;12.05;;;;;;;;;;5003991;28;20036;-84
2022/07/03 04:01:14;;;;;;;14.27;9.88;;;;;;;;;;5004183;28;20047;-80
2022/07/03 04:03:40;;;;;;;13.68;9.40;;;;;;;;;;5001088;28;20035;-80
2022/07/03 04:06:05;;;;;;;11.20;9.73;;;;;;;;;;5001080;28;20022;-84
2022/07/03 04:08:32;;;;;;;14.02;9.50;;;;;;;;;;5007959;28;20440;-81
2022/07/03 04:10:57;;;;;;;11.13;9.32;;;;;;;;;;5004856;28;20113;-80
2022/07/03 04:13:23;;;;;;;12.60;10.18;;;;;;;;;;5001610;28;20133;-82
2022/07/03 04:15:49;;;;;;;18.30;9.18;;;;;;;;;;5017005;28;20034;-83
2022/07/03 04:18:15;;;;;;;13.80;8.40;;;;;;;;;;5007416;28;20182;-80
2022/07/03 04:20:40;;;;;;;10.57;9.13;;;;;;;;;;5021372;28;20144;-81
2022/07/03 04:23:05;;;;;;;10.23;8.98;;;;;;;;;;5000366;28;20057;-84
2022/07/03 04:25:31;;;;;;;11.27;7.93;;;;;;;;;;5002539;28;20034;-84
2022/07/03 04:27:56;;;;;;;12.05;7.65;;;;;;;;;;5000632;28;20510;-83
2022/07/03 04:30:21;;;;;;;8.82;6.78;;;;;;;;;;4999732;28;21775;-81
2022/07/03 04:32:47;;;;;;;13.27;7.10;;;;;;;;;;5005471;28;20109;-80
2022/07/03 04:35:12;;;;;;;9.38;7.40;;;;;;;;;;5002845;28;20445;-84
2022/07/03 04:37:38;;;;;;;10.60;6.65;;;;;;;;;;5002562;28;20354;-80
2022/07/03 04:40:03;;;;;;;8.73;6.20;;;;;;;;;;5001713;28;20214;-81
2022/07/03 04:42:28;;;;;;;8.20;7.28;;;;;;;;;;5002535;28;20088;-80
2022/07/03 04:44:54;;;;;;;7.40;5.88;;;;;;;;;;5003236;28;20030;-80
2022/07/03 04:47:22;;;;;;;9.05;6.00;;;;;;;;;;5004521;28;20970;-84
2022/07/03 04:49:47;;;;;;;6.47;5.53;;;;;;;;;;5004635;28;20136;-80
2022/07/03 04:52:12;;;;;;;10.90;5.85;;;;;;;;;;5005386;28;20053;-80
2022/07/03 04:54:38;;;;;;;10.75;5.10;;;;;;;;;;5001587;28;20408;-80
2022/07/03 04:57:04;;;;;;;7.35;4.85;;;;;;;;;;5003688;28;20022;-84
2022/07/03 04:59:30;;;;;;;7.03;4.75;;;;;;;;;;5001439;28;20038;-83
2022/07/03 05:01:55;;;;;;;7.90;5.22;;;;;;;;;;4987650;28;20045;-79
2022/07/03 05:04:23;;;;;;;6.28;4.65;;;;;;;;;;4979801;28;20135;-82
2022/07/03 05:06:48;;;;;;;6.65;4.30;;;;;;;;;;4994222;28;20041;-83
2022/07/03 05:09:14;;;;;;;6.25;4.32;;;;;;;;;;4986403;28;20438;-79
2022/07/03 05:11:40;;;;;;;5.53;3.50;;;;;;;;;;4985460;28;20049;-83
2022/07/03 05:14:06;;;;;;;4.57;4.18;;;;;;;;;;4981088;28;20515;-83
2022/07/03 05:16:31;;;;;;;3.90;3.42;;;;;;;;;;4999200;28;20038;-80
2022/07/03 05:18:57;;;;;;;5.30;3.53;;;;;;;;;;4987219;28;20034;-83
2022/07/03 05:21:22;;;;;;;4.95;3.33;;;;;;;;;;4984937;28;20029;-79
2022/07/03 05:23:47;;;;;;;7.57;3.33;;;;;;;;;;4982526;28;20027;-79
2022/07/03 05:26:15;;;;;;;4.90;2.75;;;;;;;;;;4985704;28;20727;-82
2022/07/03 05:28:41;;;;;;;4.82;4.03;;;;;;;;;;4999793;28;20034;-79
2022/07/03 05:31:06;;;;;;;4.53;3.25;;;;;;;;;;4979844;28;20030;-84
2022/07/03 05:33:33;;;;;;;7.57;3.35;;;;;;;;;;4983521;28;20026;-83
2022/07/03 05:36:01;;;;;;;5.38;3.85;;;;;;;;;;4981114;28;20026;-80
2022/07/03 05:41:14;;;;;;;3.53;3.22;;;;;;;;;;4980988;28;20497;-79
2022/07/03 05:43:39;;;;;;;5.70;4.18;;;;;;;;;;4965117;28;20030;-79
2022/07/03 05:46:04;;;;;;;4.40;3.03;;;;;;;;;;4980382;28;20702;-79
2022/07/03 05:48:32;;;;;;;4.40;3.47;;;;;;;;;;4986765;28;20061;-83
2022/07/03 05:51:01;;;;;;;8.20;4.38;;;;;;;;;;4987563;28;20030;-79
2022/07/03 05:53:27;;;;;;;5.97;3.97;;;;;;;;;;4983066;28;20026;-79
2022/07/03 05:55:52;;;;;;;4.85;3.60;;;;;;;;;;4984023;28;20031;-81
2022/07/03 05:58:17;;;;;;;10.23;4.07;;;;;;;;;;4982971;28;20022;-80
2022/07/03 06:00:43;;;;;;;6.82;3.95;;;;;;;;;;4993438;28;20034;-84
2022/07/03 06:03:11;;;;;;;4.50;2.80;;;;;;;;;;4999714;28;20046;-84
2022/07/03 06:05:39;;;;;;;4.18;3.50;;;;;;;;;;4999787;28;20030;-79
2022/07/03 06:08:08;;;;;;;4.80;3.55;;;;;;;;;;5001549;28;20026;-79
2022/07/03 06:10:33;;;;;;;8.07;3.85;;;;;;;;;;5015669;28;20034;-79
2022/07/03 06:12:58;;;;;;;5.55;3.25;;;;;;;;;;5013159;28;20075;-83
2022/07/03 06:15:24;;;;;;;5.78;4.22;;;;;;;;;;4998334;28;20054;-80
2022/07/03 06:17:49;;;;;;;8.65;3.83;;;;;;;;;;5000623;28;20425;-80
2022/07/03 06:20:14;;;;;;;8.55;4.78;;;;;;;;;;5006229;28;20033;-80
2022/07/03 06:22:40;;;;;;;5.47;4.20;;;;;;;;;;5017170;28;20034;-84
2022/07/03 06:25:06;;;;;;;5.90;4.32;;;;;;;;;;5001895;28;20045;-80
2022/07/03 06:27:32;;;;;;;6.85;4.32;;;;;;;;;;4999349;28;20037;-82
2022/07/03 06:29:57;;;;;;;4.80;4.00;;;;;;;;;;4997533;28;20528;-82
2022/07/03 06:32:22;;;;;;;7.97;4.38;;;;;;;;;;4999725;28;20021;-79
2022/07/03 06:34:47;;;;;;;6.85;4.13;;;;;;;;;;4999056;28;20065;-83
2022/07/03 06:37:16;;;;;;;9.57;4.68;;;;;;;;;;4997684;28;20084;-82
2022/07/03 06:39:41;;;;;;;11.35;5.35;;;;;;;;;;4996985;28;20030;-83
2022/07/03 06:42:06;;;;;;;5.35;3.72;;;;;;;;;;4996123;28;20025;-83
2022/07/03 06:44:32;;;;;;;6.15;2.95;;;;;;;;;;5001843;28;20049;-83
2022/07/03 06:46:57;;;;;;;5.88;3.80;;;;;;;;;;5000259;28;20026;-83
2022/07/03 06:49:23;;;;;;;3.33;3.03;;;;;;;;;;5004272;28;20033;-79
2022/07/03 06:51:48;;;;;;;4.82;3.17;;;;;;;;;;5004134;28;20083;-79
2022/07/03 06:54:13;;;;;;;4.50;3.55;;;;;;;;;;5002476;28;20026;-81
2022/07/03 06:56:39;;;;;;;4.30;2.85;;;;;;;;;;5003885;28;20378;-82
2022/07/03 06:59:04;;;;;;;7.05;3.30;;;;;;;;;;5005763;28;20030;-83
2022/07/03 07:01:29;;;;;;;5.65;3.03;;;;;;;;;;5008193;28;20413;-79
2022/07/03 07:03:55;;;;;;;6.57;2.78;;;;;;;;;;5022988;28;20033;-82
2022/07/03 07:06:20;;;;;;;4.28;2.72;;;;;;;;;;5002749;28;20040;-82
2022/07/03 07:08:48;;;;;;;4.47;2.30;;;;;;;;;;5027349;28;20033;-83
2022/07/03 07:11:14;;;;;;;5.93;3.72;;;;;;;;;;5005483;28;20104;-79
2022/07/03 07:13:42;;;;;;;5.70;2.47;;;;;;;;;;5003137;28;20108;-79
2022/07/03 07:16:07;;;;;;;6.53;2.85;;;;;;;;;;5020594;28;20033;-79
2022/07/03 07:18:34;;;;;;;6.57;2.83;;;;;;;;;;5008884;28;20033;-79
2022/07/03 07:20:59;;;;;;;4.55;2.30;;;;;;;;;;5028341;28;20480;-79
2022/07/03 07:23:24;;;;;;;7.20;2.60;;;;;;;;;;5007344;28;20025;-79
2022/07/03 07:25:50;;;;;;;4.80;2.40;;;;;;;;;;5027109;28;20037;-79
2022/07/03 07:28:18;;;;;;;5.03;2.63;;;;;;;;;;5028828;28;20087;-83
2022/07/03 07:30:46;;;;;;;4.25;2.10;;;;;;;;;;5004190;28;20036;-79
2022/07/03 07:33:12;;;;;;;3.67;2.15;;;;;;;;;;5020243;28;20389;-80
2022/07/03 07:35:37;;;;;;;4.13;2.58;;;;;;;;;;5006276;28;20029;-79
2022/07/03 07:38:02;;;;;;;4.93;2.25;;;;;;;;;;5021175;28;21223;-79
2022/07/03 07:40:28;;;;;;;5.20;2.30;;;;;;;;;;5003609;28;20061;-79
2022/07/03 07:42:53;;;;;;;7.32;3.75;;;;;;;;;;5006639;28;20022;-79
2022/07/03 07:45:18;;;;;;;7.80;2.40;;;;;;;;;;5004288;28;20037;-78
2022/07/03 07:47:43;;;;;;;5.30;2.20;;;;;;;;;;5002719;28;20137;-78
2022/07/03 07:50:09;;;;;;;5.53;2.25;;;;;;;;;;5001806;28;20084;-83
2022/07/03 07:52:34;;;;;;;5.20;2.55;;;;;;;;;;5020793;28;20022;-82
2022/07/03 07:54:59;;;;;;;4.60;2.78;;;;;;;;;;5026030;28;20112;-78
2022/07/03 07:57:25;;;;;;;6.07;2.90;;;;;;;;;;5006933;28;20027;-79
2022/07/03 07:59:51;;;;;;;3.58;1.90;;;;;;;;;;5025435;28;20022;-82
2022/07/03 08:07:43;;;;;;;5.00;1.80;;;;;;;;;;5023836;28;21595;-78
2022/07/03 08:10:09;;;;;;;2.78;1.40;;;;;;;;;;5021726;28;20025;-78
2022/07/03 08:12:34;;;;;;;3.33;1.73;;;;;;;;;;5023028;28;20021;-81
2022/07/03 08:14:59;;;;;;;3.08;1.70;;;;;;;;;;5003726;28;20037;-78
2022/07/03 08:17:24;;;;;;;5.53;1.87;;;;;;;;;;5024611;28;20028;-82
2022/07/03 08:19:50;;;;;;;4.50;1.70;;;;;;;;;;5007508;28;20845;-77
2022/07/03 08:22:15;;;;;;;4.35;2.95;;;;;;;;;;5005093;28;20052;-79
2022/07/03 08:24:40;;;;;;;3.65;1.58;;;;;;;;;;5024842;28;20411;-80
2022/07/03 08:27:05;;;;;;;4.17;1.60;;;;;;;;;;5022293;28;20009;-76
2022/07/03 08:29:31;;;;;;;3.95;1.45;;;;;;;;;;5018739;28;20365;-80
2022/07/03 08:31:57;;;;;;;3.15;1.50;;;;;;;;;;5006573;28;20030;-81
2022/07/03 08:34:22;;;;;;;4.38;1.70;;;;;;;;;;5007991;28;20040;-79
2022/07/03 08:36:47;;;;;;;4.90;1.58;;;;;;;;;;5025841;28;20022;-81
2022/07/03 08:39:12;;;;;;;7.47;2.67;;;;;;;;;;5014274;28;20037;-78
2022/07/03 08:41:39;;;;;;;2.55;1.58;;;;;;;;;;5024744;28;20299;-80
2022/07/03 08:44:08;;;;;;;3.72;1.60;;;;;;;;;;5026987;28;20040;-77
2022/07/03 08:46:34;;;;;;;2.80;1.50;;;;;;;;;;5023477;28;20025;-80
2022/07/03 08:49:02;;;;;;;4.82;2.10;;;;;;;;;;5028637;28;20164;-81
2022/07/03 08:51:31;;;;;;;2.95;2.28;;;;;;;;;;5022606;28;20056;-79
2022/07/03 08:53:58;;;;;;;2.53;1.92;;;;;;;;;;5012205;28;20080;-81
2022/07/03 08:56:24;;;;;;;5.05;1.83;;;;;;;;;;5026689;28;20095;-82
2022/07/03 08:58:49;;;;;;;3.45;1.90;;;;;;;;;;5024670;28;20029;-76
2022/07/03 09:01:15;;;;;;;3.15;1.45;;;;;;;;;;5016637;28;20377;-80
2022/07/03 09:03:42;;;;;;;3.78;2.03;;;;;;;;;;5028282;28;20036;-78
2022/07/03 09:06:07;;;;;;;2.75;1.50;;;;;;;;;;5034436;28;20028;-76
2022/07/03 09:08:36;;;;;;;7.00;2.20;;;;;;;;;;5028292;28;20033;-80
2022/07/03 09:11:04;;;;;;;3.03;1.30;;;;;;;;;;5009074;28;20250;-80
2022/07/03 09:13:30;;;;;;;5.97;2.13;;;;;;;;;;5015546;28;20504;-77
2022/07/03 09:15:55;;;;;;;2.15;1.20;;;;;;;;;;5029322;28;20017;-81
2022/07/03 09:18:40;;;;;;;4.80;1.85;;;;;;;;;;5014382;28;20083;-77
2022/07/03 09:21:06;;;;;;;3.95;1.45;;;;;;;;;;5023694;28;20660;-79
2022/07/03 09:23:38;;;;;;;3.70;1.60;;;;;;;;;;5022052;28;20033;-78
2022/07/03 09:26:03;;;;;;;;;;;;;;;;;;5027448;28;20707;-80
2022/07/03 09:28:46;;;;;;;3.10;1.95;;;;;;;;;;5022843;28;19917;-78
2022/07/03 09:31:12;;;;;;;6.32;2.17;;;;;;;;;;5008728;28;20058;-78
2022/07/03 09:33:58;;;;;;;2.78;1.55;;;;;;;;;;5006181;28;20481;-80
2022/07/03 09:36:43;;;;;;;2.83;1.30;;;;;;;;;;5006191;28;20025;-79
2022/07/03 09:39:24;;;;;;;3.90;1.52;;;;;;;;;;5025447;28;20026;-80
2022/07/03 09:41:57;;;;;;;2.22;1.40;;;;;;;;;;5028529;28;20044;-80
2022/07/03 09:44:28;;;;;;;4.05;1.95;;;;;;;;;;5010225;28;20021;-78
2022/07/03 09:47:12;;;;;;;4.30;1.77;;;;;;;;;;5004397;28;20018;-80
2022/07/03 09:49:51;;;;;;;2.30;1.15;;;;;;;;;;5013423;28;20029;-78
2022/07/03 09:52:26;;;;;;;1.38;1.25;;;;;;;;;;5035421;28;20021;-78
2022/07/03 09:54:51;;;;;;;2.10;1.00;;;;;;;;;;5030852;28;20353;-78
2022/07/03 09:57:17;;;;;;;1.23;1.13;;;;;;;;;;5023333;28;20021;-80
2022/07/03 09:59:42;;;;;;;2.75;1.10;;;;;;;;;;5020583;28;20029;-80
2022/07/03 10:02:10;;;;;;;1.38;1.27;;;;;;;;;;4997182;28;20041;-78
2022/07/03 10:04:36;;;;;;;1.30;1.20;;;;;;;;;;5014046;28;20408;-77
2022/07/03 10:07:03;;;;;;;3.17;1.13;;;;;;;;;;5009243;28;20014;-78
2022/07/03 10:09:29;;;;;;;4.15;1.45;;;;;;;;;;5007060;28;20441;-80
2022/07/03 10:11:55;;;;;;;1.55;1.20;;;;;;;;;;5007820;28;20026;-79
2022/07/03 10:14:21;;;;;;;2.28;1.23;;;;;;;;;;5008966;28;20025;-79
2022/07/03 10:16:48;;;;;;;2.28;1.40;;;;;;;;;;5026480;28;20033;-80
2022/07/03 10:19:15;;;;;;;3.40;1.40;;;;;;;;;;5023360;28;20034;-79
2022/07/03 10:21:43;;;;;;;2.00;1.23;;;;;;;;;;5023580;28;20037;-79
2022/07/03 10:24:10;;;;;;;2.00;1.10;;;;;;;;;;5007071;28;20029;-78
2022/07/03 10:26:36;;;;;;;1.60;1.50;;;;;;;;;;5028200;28;20239;-80
2022/07/03 10:29:02;;;;;;;2.67;1.40;;;;;;;;;;5024770;28;20112;-81
2022/07/03 10:31:27;;;;;;;4.82;1.60;;;;;;;;;;5023150;28;20041;-80
2022/07/03 10:33:53;;;;;;;3.75;1.40;;;;;;;;;;5021236;28;20029;-79
2022/07/03 10:36:18;;;;;;;2.10;1.15;;;;;;;;;;5023631;28;20112;-78
2022/07/03 10:38:46;;;;;;;2.10;1.40;;;;;;;;;;5017364;28;21502;-80
2022/07/03 10:46:54;;;;;;;3.20;1.63;;;;;;;;;;5018029;28;20114;-80
2022/07/03 10:49:20;;;;;;;4.25;1.52;;;;;;;;;;5002471;28;20031;-80
2022/07/03 10:51:45;;;;;;;2.88;1.20;;;;;;;;;;5021451;28;20464;-80
2022/07/03 10:54:17;;;;;;;2.17;1.05;;;;;;;;;;5018905;28;21045;-81
2022/07/03 10:56:57;;;;;;;2.17;1.15;;;;;;;;;;5001836;28;20029;-81
2022/07/03 10:59:22;;;;;;;4.80;1.60;;;;;;;;;;5021287;28;20107;-80
2022/07/03 11:02:11;;;;;;;4.65;2.10;;;;;;;;;;5021105;28;20059;-81
2022/07/03 11:04:55;;;;;;;3.97;2.25;;;;;;;;;;5000629;28;20042;-80
2022/07/03 11:07:20;;;;;;;3.88;1.83;;;;;;;;;;5022973;28;20504;-81
2022/07/03 11:09:45;;;;;;;5.25;2.10;;;;;;;;;;5006073;28;20029;-81
2022/07/03 11:12:10;;;;;;;6.50;2.20;;;;;;;;;;5007393;28;20100;-82
2022/07/03 11:14:35;;;;;;;4.57;1.73;;;;;;;;;;5007288;28;20294;-81
2022/07/03 11:17:16;;;;;;;7.85;1.98;;;;;;;;;;4997175;28;20061;-81
2022/07/03 11:19:41;;;;;;;4.30;1.90;;;;;;;;;;5000662;28;20041;-82
2022/07/03 11:22:09;;;;;;;5.55;2.00;;;;;;;;;;4998001;28;20390;-81
2022/07/03 11:24:37;;;;;;;5.00;2.50;;;;;;;;;;5003368;28;20117;-80
2022/07/03 11:27:27;;;;;;;7.03;2.78;;;;;;;;;;5001047;28;20513;-82
2022/07/03 11:29:55;;;;;;;7.50;2.17;;;;;;;;;;5009297;28;20482;-81
2022/07/03 11:32:57;;;;;;;5.00;2.05;;;;;;;;;;5001475;28;20034;-81
2022/07/03 11:35:46;;;;;;;3.90;1.88;;;;;;;;;;4977898;28;20049;-82
2022/07/03 11:38:13;;;;;;;4.35;2.00;;;;;;;;;;5009239;28;20409;-82
2022/07/03 11:40:40;;;;;;;12.60;5.15;;;;;;;;;;5005231;28;20510;-80
2022/07/03 11:43:06;;;;;;;13.18;6.90;;;;;;;;;;5011711;28;20014;-80
2022/07/03 11:45:31;;;;;;;9.32;5.55;;;;;;;;;;5024904;28;20072;-81
2022/07/03 11:47:56;;;;;;;4.85;2.65;;;;;;;;;;5012176;28;20013;-81
2022/07/03 11:50:35;;;;;;;4.78;2.35;;;;;;;;;;5008986;28;20469;-81
2022/07/03 11:53:16;;;;;;;7.22;2.50;;;;;;;;;;5024004;28;20018;-80
2022/07/03 11:56:00;;;;;;;3.22;1.92;;;;;;;;;;5006684;28;20161;-82
2022/07/03 11:58:35;;;;;;;8.52;2.28;;;;;;;;;;5023290;28;20018;-83
2022/07/03 12:01:00;;;;;;;6.53;1.70;;;;;;;;;;5008702;28;20083;-82
2022/07/03 12:03:26;;;;;;;5.10;1.70;;;;;;;;;;5019187;28;20033;-81
2022/07/03 12:05:51;;;;;;;6.47;2.05;;;;;;;;;;5010042;28;20033;-83
2022/07/03 12:08:21;;;;;;;3.27;1.67;;;;;;;;;;5016244;28;20025;-81
2022/07/03 12:10:46;;;;;;;3.85;1.83;;;;;;;;;;5030663;28;20348;-82
2022/07/03 12:13:18;;;;;;;3.90;1.80;;;;;;;;;;5013093;28;20013;-83
2022/07/03 12:15:47;;;;;;;6.15;2.75;;;;;;;;;;5010616;28;20279;-81
2022/07/03 12:18:15;;;;;;;10.90;2.35;;;;;;;;;;5035444;28;20036;-83
2022/07/03 12:20:41;;;;;;;6.25;2.40;;;;;;;;;;5018309;28;20037;-82
2022/07/03 12:23:09;;;;;;;7.07;2.20;;;;;;;;;;5038843;28;20024;-82
2022/07/03 12:25:39;;;;;;;3.55;1.83;;;;;;;;;;5032705;28;20018;-81
2022/07/03 12:28:05;;;;;;;3.28;2.28;;;;;;;;;;5013467;28;20107;-82
2022/07/03 12:30:30;;;;;;;5.43;1.83;;;;;;;;;;5033965;28;20509;-81
2022/07/03 12:32:56;;;;;;;8.35;3.55;;;;;;;;;;5033138;28;20089;-82
2022/07/03 12:35:25;;;;;;;3.95;1.83;;;;;;;;;;5030498;28;20032;-82
2022/07/03 12:37:50;;;;;;;6.10;2.20;;;;;;;;;;5029216;28;20033;-80
2022/07/03 12:40:16;;;;;;;3.38;2.08;;;;;;;;;;5031901;28;20547;-77
2022/07/03 12:42:45;;;;;;;5.53;2.30;;;;;;;;;;5014819;28;20109;-77
2022/07/03 12:45:11;;;;;;;6.78;3.10;;;;;;;;;;5034034;28;20381;-82
2022/07/03 12:47:39;;;;;;;10.40;4.43;;;;;;;;;;5038933;28;20078;-80
2022/07/03 12:50:05;;;;;;;7.07;4.18;;;;;;;;;;5032180;28;20056;-80
2022/07/03 12:52:32;;;;;;;4.20;2.90;;;;;;;;;;5027299;28;20512;-80
2022/07/03 12:54:58;;;;;;;7.95;4.13;;;;;;;;;;5009078;28;20448;-80
2022/07/03 13:00:11;;;;;;;7.82;3.67;;;;;;;;;;5036505;28;20415;-79
2022/07/03 13:02:40;;;;;;;7.50;3.63;;;;;;;;;;5011951;28;20038;-79
2022/07/03 13:05:22;;;;;;;7.78;3.50;;;;;;;;;;5033555;28;20030;-79
2022/07/03 13:07:48;;;;;;;4.18;3.05;;;;;;;;;;5036629;28;20013;-80
2022/07/03 13:10:15;;;;;;;6.60;3.22;;;;;;;;;;5014505;28;20026;-82
2022/07/03 13:12:47;;;;;;;4.43;3.53;;;;;;;;;;5014207;28;20025;-79
2022/07/03 13:15:12;;;;;;;6.47;4.10;;;;;;;;;;5025045;28;20029;-80
2022/07/03 13:18:03;;;;;;;4.63;3.63;;;;;;;;;;5010730;28;20611;-82
2022/07/03 13:20:32;;;;;;;6.45;4.07;;;;;;;;;;5001458;28;20278;-80
2022/07/03 13:22:59;;;;;;;6.47;4.13;;;;;;;;;;5004314;28;20131;-80
2022/07/03 13:25:25;;;;;;;6.53;3.42;;;;;;;;;;5022189;28;20029;-79
2022/07/03 13:27:50;;;;;;;4.65;3.80;;;;;;;;;;5018583;28;20514;-80
2022/07/03 13:30:16;;;;;;;4.40;2.88;;;;;;;;;;5021758;28;20488;-79
2022/07/03 13:32:44;;;;;;;5.53;2.80;;;;;;;;;;5027555;28;20021;-80
2022/07/03 13:35:10;;;;;;;2.63;2.42;;;;;;;;;;5020935;28;20451;-79
2022/07/03 13:37:35;;;;;;;4.00;2.85;;;;;;;;;;5011887;28;20013;-81
2022/07/03 13:40:01;;;;;;;5.20;2.40;;;;;;;;;;5013368;28;20028;-80
2022/07/03 13:42:27;;;;;;;3.03;1.95;;;;;;;;;;4999691;28;20485;-79
2022/07/03 13:44:52;;;;;;;2.78;2.03;;;;;;;;;;5018783;28;20034;-82
2022/07/03 13:47:17;;;;;;;1.88;1.73;;;;;;;;;;5020474;28;20547;-80
2022/07/03 13:49:44;;;;;;;3.67;1.80;;;;;;;;;;5028393;28;20041;-81
2022/07/03 13:52:09;;;;;;;5.35;1.98;;;;;;;;;;5030591;28;20021;-80
2022/07/03 13:54:35;;;;;;;5.15;2.45;;;;;;;;;;5013725;28;20312;-85
2022/07/03 13:57:00;;;;;;;6.20;2.38;;;;;;;;;;5030261;28;20021;-81
2022/07/03 13:59:26;;;;;;;3.67;2.40;;;;;;;;;;5028669;28;20036;-84
2022/07/03 14:01:51;;;;;;;5.80;4.00;;;;;;;;;;5027178;28;20042;-81
2022/07/03 14:04:16;;;;;;;5.03;3.28;;;;;;;;;;5004296;28;20021;-80
2022/07/03 14:06:41;;;;;;;3.35;2.97;;;;;;;;;;5030304;28;20040;-84
2022/07/03 14:09:07;;;;;;;5.28;2.58;;;;;;;;;;5019717;28;20518;-80
2022/07/03 14:11:32;;;;;;;4.18;2.70;;;;;;;;;;5028808;28;20485;-83
2022/07/03 14:13:57;;;;;;;6.70;3.03;;;;;;;;;;5009953;28;20513;-84
2022/07/03 14:16:23;;;;;;;5.45;2.53;;;;;;;;;;5024537;28;20024;-83
2022/07/03 14:18:51;;;;;;;8.63;3.85;;;;;;;;;;5009377;28;20037;-79
2022/07/03 14:21:21;;;;;;;4.55;2.17;;;;;;;;;;5029165;28;20140;-80
2022/07/03 14:23:46;;;;;;;4.95;2.30;;;;;;;;;;5008269;28;20040;-78
2022/07/03 14:26:11;;;;;;;4.00;2.58;;;;;;;;;;5027557;28;20033;-79
2022/07/03 14:33:49;;;;;;;5.20;2.40;;;;;;;;;;5024969;28;20026;-80
2022/07/03 14:36:15;;;;;;;3.38;2.15;;;;;;;;;;5023422;28;20032;-81
2022/07/03 14:38:40;;;;;;;4.43;3.10;;;;;;;;;;5010888;28;20161;-80
2022/07/03 14:41:05;;;;;;;4.65;2.78;;;;;;;;;;5025220;28;20068;-81
2022/07/03 14:43:30;;;;;;;3.92;2.88;;;;;;;;;;5024221;28;20234;-80
2022/07/03 14:45:56;;;;;;;6.57;3.20;;;;;;;;;;5025946;28;20075;-80
2022/07/03 14:48:21;;;;;;;4.82;3.00;;;;;;;;;;5032411;28;20374;-81
2022/07/03 14:50:50;;;;;;;6.05;2.95;;;;;;;;;;5028768;28;20461;-82
2022/07/03 14:53:15;;;;;;;4.35;3.00;;;;;;;;;;5025217;28;20042;-80
2022/07/03 14:55:41;;;;;;;4.60;2.67;;;;;;;;;;5001503;28;20056;-81
2022/07/03 14:58:17;;;;;;;4.60;2.20;;;;;;;;;;5010707;28;20318;-81
2022/07/03 15:00:45;;;;;;;5.68;2.40;;;;;;;;;;5008899;28;20508;-81
2022/07/03 15:03:15;;;;;;;3.45;3.15;;;;;;;;;;5028559;28;20045;-79
2022/07/03 15:05:42;;;;;;;3.30;3.00;;;;;;;;;;5009332;28;20473;-79
2022/07/03 15:08:10;;;;;;;2.75;1.95;;;;;;;;;;5024682;28;21744;-81